createdAt,value
2022-09-07T00:01:09.684Z,18.25
2022-09-07T00:03:41.098Z,16.78
2022-09-07T00:06:12.417Z,18.22
2022-09-07T00:08:42.222Z,18.32
2022-09-07T00:11:14.219Z,19.38
2022-09-07T00:13:43.577Z,16.47
2022-09-07T00:16:14.409Z,19.83
2022-09-07T00:18:46.281Z,18.59
2022-09-07T00:21:17.041Z,19.00
2022-09-07T00:23:45.892Z,18.46
2022-09-07T00:26:15.654Z,16.59
2022-09-07T00:28:44.373Z,18.73
2022-09-07T00:31:14.470Z,19.17
2022-09-07T00:33:44.356Z,16.99
2022-09-07T00:36:12.882Z,18.50
2022-09-07T00:38:41.096Z,19.42
2022-09-07T00:41:09.361Z,17.95
2022-09-07T00:43:40.301Z,16.21
2022-09-07T00:46:15.499Z,19.32
2022-09-07T00:48:52.320Z,17.86
2022-09-07T00:51:26.672Z,17.79
2022-09-07T01:16:12.012Z,15.49
2022-09-07T01:18:46.620Z,17.11
2022-09-07T01:21:24.917Z,16.80
2022-09-07T01:24:34.474Z,18.39
2022-09-07T01:27:36.917Z,18.67
2022-09-07T01:30:07.396Z,18.62
2022-09-07T01:33:05.093Z,15.47
2022-09-07T01:35:41.192Z,18.67
2022-09-07T01:38:15.861Z,15.82
2022-09-07T01:40:50.245Z,16.79
2022-09-07T01:43:31.221Z,16.31
2022-09-07T01:46:02.644Z,18.62
2022-09-07T01:48:33.862Z,18.39
2022-09-07T01:51:04.702Z,15.55
2022-09-07T01:53:37.757Z,18.03
2022-09-07T01:56:12.019Z,15.35
2022-09-07T01:58:46.092Z,17.47
2022-09-07T02:01:21.062Z,17.44
2022-09-07T02:03:53.705Z,17.86
2022-09-07T02:06:27.966Z,16.63
2022-09-07T02:09:00.894Z,18.05
2022-09-07T02:11:34.861Z,18.05
2022-09-07T02:14:12.030Z,17.26
2022-09-07T02:39:45.485Z,17.85
2022-09-07T02:42:13.996Z,16.06
2022-09-07T02:44:45.625Z,15.49
2022-09-07T02:47:25.991Z,14.97
2022-09-07T02:50:30.008Z,17.74
2022-09-07T02:53:12.681Z,17.31
2022-09-07T02:55:54.733Z,16.22
2022-09-07T02:58:34.561Z,17.71
2022-09-07T03:01:11.976Z,15.88
2022-09-07T03:03:49.099Z,15.87
2022-09-07T03:06:25.244Z,17.59
2022-09-07T03:08:57.515Z,15.32
2022-09-07T03:11:27.837Z,17.52
2022-09-07T03:14:17.293Z,17.47
2022-09-07T03:16:45.678Z,15.16
2022-09-07T03:19:13.643Z,15.93
2022-09-07T03:21:41.823Z,15.30
2022-09-07T03:24:10.972Z,17.30
2022-09-07T03:26:44.109Z,16.35
2022-09-07T03:29:12.412Z,15.95
2022-09-07T03:31:40.354Z,16.61
2022-09-07T03:34:08.636Z,17.25
2022-09-07T03:36:37.039Z,16.60
2022-09-07T03:39:07.432Z,13.82
2022-09-07T03:41:36.059Z,16.30
2022-09-07T03:44:06.660Z,16.89
2022-09-07T03:46:35.509Z,13.86
2022-09-07T03:49:03.594Z,16.83
2022-09-07T03:51:31.577Z,13.74
2022-09-07T03:54:00.723Z,16.39
2022-09-07T03:56:28.844Z,14.32
2022-09-07T03:58:56.881Z,14.76
2022-09-07T04:01:28.185Z,13.80
2022-09-07T04:04:02.095Z,14.70
2022-09-07T04:06:31.460Z,15.23
2022-09-07T04:12:02.343Z,14.41
2022-09-07T04:14:30.393Z,16.39
2022-09-07T04:26:31.827Z,16.52
2022-09-07T04:29:01.067Z,15.42
2022-09-07T04:31:29.028Z,16.49
2022-09-07T04:33:57.843Z,16.48
2022-09-07T04:36:25.931Z,14.48
2022-09-07T04:39:00.876Z,15.72
2022-09-07T04:41:31.799Z,14.28
2022-09-07T04:44:01.258Z,16.32
2022-09-07T04:52:35.132Z,13.62
2022-09-07T04:55:04.084Z,15.07
2022-09-07T04:57:33.427Z,15.03
2022-09-07T05:00:01.572Z,16.20
2022-09-07T05:02:30.844Z,12.68
2022-09-07T05:05:02.609Z,14.20
2022-09-07T05:07:31.122Z,16.25
2022-09-07T05:09:59.142Z,15.20
2022-09-07T05:12:27.620Z,14.76
2022-09-07T05:15:03.422Z,13.68
2022-09-07T05:17:32.394Z,15.05
2022-09-07T05:35:58.939Z,16.43
2022-09-07T05:38:29.211Z,16.50
2022-09-07T05:40:58.481Z,13.50
2022-09-07T05:43:26.502Z,13.98
2022-09-07T05:45:57.306Z,14.30
2022-09-07T05:51:37.256Z,14.75
2022-09-07T05:54:05.488Z,14.77
2022-09-07T05:56:35.141Z,15.11
2022-09-07T05:59:03.100Z,17.67
2022-09-07T06:01:31.947Z,15.92
2022-09-07T06:04:00.261Z,16.18
2022-09-07T06:06:28.734Z,16.48
2022-09-07T06:08:58.747Z,16.07
2022-09-07T06:11:27.251Z,18.80
2022-09-07T06:13:56.980Z,16.24
2022-09-07T06:16:26.109Z,19.05
2022-09-07T06:18:54.425Z,20.21
2022-09-07T06:21:25.155Z,19.56
2022-09-07T06:23:53.368Z,23.33
2022-09-07T06:26:25.585Z,25.17
2022-09-07T06:28:57.773Z,25.05
2022-09-07T06:31:27.256Z,25.60
2022-09-07T06:34:01.180Z,28.23
2022-09-07T06:36:29.772Z,29.64
2022-09-07T06:39:07.004Z,29.69
2022-09-07T06:44:31.111Z,30.50
2022-09-07T06:49:30.203Z,32.36
2022-09-07T06:51:58.160Z,34.21
2022-09-07T06:57:16.004Z,35.11
2022-09-07T06:59:44.362Z,36.22
2022-09-07T07:02:14.862Z,36.49
2022-09-07T07:04:42.753Z,36.58
2022-09-07T07:07:11.692Z,36.90
2022-09-07T07:09:39.997Z,36.32
2022-09-07T07:12:08.170Z,37.60
2022-09-07T07:14:41.059Z,38.73
2022-09-07T07:17:11.233Z,39.10
2022-09-07T07:19:39.134Z,39.06
2022-09-07T07:22:23.893Z,39.04
2022-09-07T07:24:55.098Z,37.85
2022-09-07T07:27:22.868Z,39.16
2022-09-07T07:29:52.555Z,38.93
2022-09-07T07:32:20.473Z,40.55
2022-09-07T07:34:48.429Z,41.00
2022-09-07T07:37:16.406Z,41.22
2022-09-07T07:42:32.492Z,42.24
2022-09-07T07:47:51.444Z,43.55
2022-09-07T07:50:34.929Z,44.05
2022-09-07T07:55:51.275Z,44.74
2022-09-07T07:58:19.471Z,44.17
2022-09-07T08:00:56.501Z,44.67
2022-09-07T08:03:25.957Z,45.74
2022-09-07T08:05:54.057Z,46.24
2022-09-07T08:08:22.947Z,46.81
2022-09-07T08:10:51.380Z,46.76
2022-09-07T08:13:19.448Z,46.38
2022-09-07T08:15:48.886Z,45.89
2022-09-07T08:18:18.045Z,47.07
2022-09-07T08:20:46.557Z,46.02
2022-09-07T08:23:15.197Z,46.16
2022-09-07T08:25:51.121Z,45.61
2022-09-07T08:28:19.408Z,40.54
2022-09-07T08:30:48.812Z,40.08
2022-09-07T08:33:17.089Z,38.21
2022-09-07T08:35:55.413Z,37.58
2022-09-07T08:38:23.521Z,34.18
2022-09-07T08:40:51.951Z,34.79
2022-09-07T08:43:29.856Z,36.06
2022-09-07T08:46:05.159Z,38.76
2022-09-07T08:48:35.154Z,39.78
2022-09-07T08:51:10.537Z,38.36
2022-09-07T08:53:44.851Z,36.27
2022-09-07T08:56:19.471Z,33.87
2022-09-07T08:58:50.447Z,35.55
2022-09-07T09:01:37.018Z,39.81
2022-09-07T09:04:16.699Z,41.48
2022-09-07T09:06:54.945Z,42.91
2022-09-07T09:09:34.688Z,44.76
2022-09-07T09:12:16.598Z,43.05
2022-09-07T09:14:59.182Z,42.74
2022-09-07T09:17:33.975Z,41.44
2022-09-07T09:20:16.297Z,44.04
2022-09-07T09:22:44.649Z,45.39
2022-09-07T09:25:20.551Z,47.29
2022-09-07T09:27:49.444Z,48.41
2022-09-07T09:30:19.233Z,48.08
2022-09-07T09:32:50.289Z,49.14
2022-09-07T09:35:29.906Z,47.09
2022-09-07T09:37:59.299Z,47.45
2022-09-07T09:40:31.334Z,47.87
2022-09-07T09:43:02.140Z,48.93
2022-09-07T09:46:12.236Z,50.64
2022-09-07T09:48:29.865Z,51.25
2022-09-07T09:54:02.636Z,47.07
2022-09-07T09:56:41.682Z,46.65
2022-09-07T10:05:35.682Z,47.48
2022-09-07T10:08:07.274Z,48.72
2022-09-07T10:10:39.188Z,48.93
2022-09-07T10:13:09.230Z,47.70
2022-09-07T10:15:40.514Z,48.08
2022-09-07T10:18:21.280Z,47.33
2022-09-07T10:20:53.697Z,44.49
2022-09-07T10:23:24.164Z,44.87
2022-09-07T10:25:52.179Z,45.20
2022-09-07T10:28:22.136Z,44.80
2022-09-07T10:31:15.868Z,47.81
2022-09-07T10:36:49.534Z,48.06
2022-09-07T10:39:23.801Z,49.37
2022-09-07T10:42:02.617Z,48.17
2022-09-07T10:44:47.511Z,48.81
2022-09-07T10:47:27.038Z,47.68
2022-09-07T10:52:55.369Z,42.28
2022-09-07T10:55:28.729Z,40.14
2022-09-07T10:58:05.934Z,38.23
2022-09-07T11:00:43.058Z,36.81
2022-09-07T11:03:29.624Z,34.53
2022-09-07T11:06:08.330Z,34.62
2022-09-07T11:14:35.267Z,32.30
2022-09-07T11:17:06.953Z,30.44
2022-09-07T11:19:41.325Z,30.17
2022-09-07T11:22:20.229Z,30.49
2022-09-07T11:27:48.173Z,30.31
2022-09-07T11:30:22.367Z,30.00
2022-09-07T11:33:02.794Z,30.11
2022-09-07T11:35:38.261Z,30.37
2022-09-07T11:38:17.577Z,32.18
2022-09-07T11:40:56.191Z,36.86
2022-09-07T11:43:29.136Z,40.80
2022-09-07T11:46:02.401Z,43.09
2022-09-07T11:48:36.443Z,44.57
2022-09-07T11:51:10.033Z,44.81
2022-09-07T11:53:46.585Z,44.57
2022-09-07T11:56:22.665Z,45.26
2022-09-07T12:07:51.612Z,41.23
2022-09-07T12:10:50.559Z,39.55
2022-09-07T12:13:37.095Z,38.04
2022-09-07T12:16:12.205Z,37.19
2022-09-07T12:18:58.026Z,36.25
2022-09-07T12:22:33.140Z,34.85
2022-09-07T12:25:51.016Z,33.50
2022-09-07T12:32:55.399Z,32.72
2022-09-07T12:40:03.818Z,33.06
2022-09-07T12:44:01.990Z,32.92
2022-09-07T13:57:26.586Z,30.10
2022-09-07T13:59:56.461Z,30.06
2022-09-07T14:02:28.305Z,30.14
2022-09-07T14:05:00.347Z,29.41
2022-09-07T14:07:30.002Z,29.96
2022-09-07T14:10:07.846Z,29.57
2022-09-07T14:12:43.793Z,29.27
2022-09-07T14:15:30.128Z,29.20
2022-09-07T14:18:07.208Z,28.17
2022-09-07T14:20:41.652Z,28.38
2022-09-07T14:23:21.088Z,28.85
2022-09-07T14:28:40.793Z,28.77
2022-09-07T14:31:12.728Z,28.53
2022-09-07T14:33:46.699Z,28.85
2022-09-07T14:36:37.343Z,28.82
2022-09-07T14:39:06.494Z,28.70
2022-09-07T14:41:38.491Z,27.17
2022-09-07T14:44:07.828Z,28.13
2022-09-07T14:46:40.683Z,28.32
2022-09-07T14:49:43.726Z,28.01
2022-09-07T14:52:19.297Z,27.84
2022-09-07T15:38:59.511Z,27.66
2022-09-07T15:41:21.758Z,27.64
2022-09-07T15:43:47.866Z,27.38
2022-09-07T15:46:16.047Z,27.69
2022-09-07T15:48:51.571Z,27.73
2022-09-07T15:54:13.075Z,27.55
2022-09-07T16:19:35.999Z,26.67
2022-09-07T18:03:52.475Z,22.48
2022-09-07T18:06:21.596Z,22.06
2022-09-07T18:56:40.989Z,19.59
2022-09-07T18:59:09.585Z,19.41
2022-09-07T19:01:38.068Z,19.86
2022-09-07T19:04:06.246Z,18.95
2022-09-07T19:06:34.348Z,20.36
2022-09-07T19:09:04.511Z,20.31
2022-09-07T19:11:33.041Z,20.27
2022-09-07T19:14:07.312Z,20.21
2022-09-07T19:20:44.349Z,19.37
2022-09-07T19:23:12.385Z,19.98
2022-09-07T19:25:43.324Z,18.70
2022-09-07T19:28:14.452Z,19.93
2022-09-07T19:30:43.852Z,19.94
2022-09-07T19:33:12.425Z,19.95
2022-09-07T19:35:40.362Z,19.35
2022-09-07T19:38:08.482Z,19.92
2022-09-07T19:40:39.455Z,19.67
2022-09-07T19:43:07.708Z,19.09
2022-09-07T19:45:39.529Z,19.77
2022-09-07T19:48:09.103Z,19.70
2022-09-07T19:50:37.201Z,19.64
2022-09-07T19:53:05.289Z,19.56
2022-09-07T19:55:33.609Z,19.54
2022-09-07T19:58:01.470Z,19.51
2022-09-07T20:00:29.597Z,19.48
2022-09-07T20:02:57.705Z,19.43
2022-09-07T20:05:31.057Z,18.83
2022-09-07T20:07:59.129Z,19.30
2022-09-07T20:10:27.133Z,17.04
2022-09-07T20:12:55.249Z,19.16
2022-09-07T20:15:23.215Z,19.10
2022-09-07T20:17:51.280Z,19.02
2022-09-07T20:20:22.863Z,17.19
2022-09-07T20:22:55.136Z,16.92
2022-09-07T20:25:23.196Z,18.80
2022-09-07T20:27:51.102Z,17.83
2022-09-07T20:30:19.217Z,18.65
2022-09-07T20:32:47.906Z,18.58
2022-09-07T20:35:16.139Z,18.51
2022-09-07T20:37:44.502Z,18.45
2022-09-07T20:40:14.024Z,17.33
2022-09-07T20:42:42.090Z,17.92
2022-09-07T20:45:10.973Z,17.98
2022-09-07T20:47:38.905Z,18.25
2022-09-07T20:50:07.700Z,18.19
2022-09-07T20:52:35.749Z,16.30
2022-09-07T20:55:03.866Z,18.08
2022-09-07T20:57:33.185Z,18.05
2022-09-07T21:00:01.117Z,17.99
2022-09-07T21:02:29.101Z,16.40
2022-09-07T21:04:57.088Z,17.88
2022-09-07T21:07:25.091Z,17.85
2022-09-07T21:09:52.973Z,16.74
2022-09-07T21:12:20.961Z,17.75
2022-09-07T21:14:50.240Z,17.13
2022-09-07T21:17:18.422Z,15.64
2022-09-07T21:19:46.455Z,17.61
2022-09-07T21:22:15.257Z,16.65
2022-09-07T21:24:43.180Z,17.51
2022-09-07T21:27:11.037Z,17.47
2022-09-07T21:29:38.973Z,16.16
2022-09-07T21:32:08.292Z,17.38
2022-09-07T21:34:36.322Z,17.33
2022-09-07T21:37:04.224Z,17.29
2022-09-07T21:39:32.118Z,17.27
2022-09-07T21:42:00.093Z,17.23
2022-09-07T21:44:28.082Z,16.51
2022-09-07T21:46:56.105Z,17.17
2022-09-07T21:49:25.572Z,17.13
2022-09-07T21:51:53.586Z,17.10
2022-09-07T21:54:21.899Z,16.76
2022-09-07T21:56:50.362Z,17.06
2022-09-07T21:59:18.312Z,17.03
2022-09-07T22:01:46.295Z,16.99
2022-09-07T22:04:14.747Z,15.72
2022-09-07T22:06:44.216Z,16.92
2022-09-07T22:09:12.216Z,15.63
2022-09-07T22:11:44.056Z,15.65
2022-09-07T22:14:15.757Z,16.82
2022-09-07T22:16:43.954Z,16.78
2022-09-07T22:19:12.343Z,14.30
2022-09-07T22:21:40.441Z,16.73
2022-09-07T22:24:14.962Z,16.69
2022-09-07T22:26:43.064Z,16.56
2022-09-07T22:29:13.415Z,15.61
2022-09-07T22:31:41.955Z,16.70
2022-09-07T22:34:10.677Z,15.92
2022-09-07T22:36:40.758Z,15.22
2022-09-07T22:39:13.489Z,16.43
2022-09-07T22:41:41.996Z,16.95
2022-09-07T22:44:12.653Z,15.77
2022-09-07T22:46:42.569Z,15.09
2022-09-07T22:49:12.737Z,16.97
2022-09-07T22:51:40.654Z,16.94
2022-09-07T22:54:10.144Z,15.62
2022-09-07T22:56:38.351Z,16.90
2022-09-07T22:59:08.447Z,16.87
2022-09-07T23:01:37.874Z,16.85
2022-09-07T23:04:06.490Z,14.36
2022-09-07T23:06:36.581Z,15.59
2022-09-07T23:09:06.784Z,16.77
2022-09-07T23:11:36.323Z,16.75
2022-09-07T23:14:07.571Z,15.91
2022-09-07T23:16:35.715Z,15.99
2022-09-07T23:19:03.882Z,16.67
2022-09-07T23:21:31.930Z,16.10
2022-09-07T23:24:01.013Z,16.63
2022-09-07T23:26:30.429Z,15.96
2022-09-07T23:29:01.252Z,15.69
2022-09-07T23:31:31.070Z,16.64
2022-09-07T23:33:59.634Z,15.89
2022-09-07T23:36:28.203Z,15.31
2022-09-07T23:38:57.660Z,16.65
2022-09-07T23:41:26.492Z,16.65
2022-09-07T23:43:54.835Z,16.66
2022-09-07T23:46:24.829Z,16.67
2022-09-07T23:48:52.871Z,15.84
2022-09-07T23:51:24.182Z,16.70
2022-09-07T23:53:53.165Z,16.68
2022-09-07T23:56:21.657Z,15.21
2022-09-07T23:58:49.645Z,15.53
